Aviation Digital Data Service (ADDS)

Output produced by METARs form (2305 UTC 23 May 2022)
found at http://www.aviationweather.gov/metar/data/
 
KHBG 231741Z 2318/2418 13003KT P6SM SCT020 
     FM232100 13003KT P6SM VCSH SCT035 BKN050 
     FM240000 11003KT P6SM BKN050 
     FM240700 00000KT P6SM OVC007 
     FM241100 08003KT 4SM BR OVC003 
     FM241400 14007KT P6SM OVC007 
     FM241500 15008KT P6SM OVC015 
     FM241700 16009KT P6SM BKN050
       
KHDN 231740Z 2318/2418 27007KT P6SM SCT025 BKN035 
     FM232000 30008KT P6SM FEW070 SCT120 
     FM240200 06005KT P6SM BKN120 
     FM240500 11005KT P6SM SCT060 BKN120 
     FM241200 14004KT P6SM BKN060 OVC100
       
KHIE 231736Z 2318/2418 02009G14KT P6SM SCT050 
     FM232300 VRB04KT P6SM SCT250
       
TAF KHIF 232100Z 2321/2503 30009KT 9999 FEW050 SCT250 QNH3004INS 
     BECMG 2402/2403 09008KT 9999 SKC QNH3002INS 
     BECMG 2417/2418 29012KT 9999 FEW060 SCT090 QNH2998INS 
     BECMG 2501/2502 09009KT 9999 FEW080 QNH3000INS TX16/2322Z TN05/2412Z
       
KHIO 231720Z 2318/2418 32005KT P6SM BKN050 
     FM240300 32005KT P6SM OVC250 
     FM241200 00000KT P6SM OVC050 
     FM241500 00000KT P6SM FEW015 BKN050
       
KHKS 231741Z 2318/2418 35005KT P6SM OVC015 
     FM232000 36005KT P6SM BKN025 OVC035 
     FM232300 05005KT P6SM FEW025 BKN040 
     FM240900 11005KT P6SM BKN015 OVC035 
     FM241100 12006KT P6SM OVC009 
     FM241400 14010KT P6SM OVC015 
     FM241700 15014G20KT P6SM BKN035
       
KHKY 232215Z 2322/2418 09007KT P6SM SCT007 BKN011 OVC030 
     FM240000 09006KT 4SM -SHRA BR OVC007 
     FM240300 14006KT 1 1/2SM +SHRA BR OVC005 WS020/17035KT 
     FM240900 05003KT 2SM BR OVC005
       
KHLG 231720Z 2318/2418 05005KT P6SM OVC050 
     FM241500 08004KT P6SM BKN025
       
KHLN 231720Z 2318/2418 VRB06KT P6SM BKN090 
     FM232000 29009KT P6SM BKN090 
     FM240100 VRB06KT P6SM VCSH BKN060 
     FM241600 28009KT P6SM SCT100
       
TAF KHMN 231700Z 2317/2423 VRB06KT 9999 FEW080 FEW200 QNH2999INS 
     BECMG 2318/2319 22010G15KT 9999 SCT080 BKN200 QNH2983INS TS OMTNS E 
     TEMPO 2320/2401 23015G25KT 
     BECMG 2402/2403 VRB06KT 9999 SCT150 SCT200 QNH2984INS 
     BECMG 2417/2418 30012G20KT 9999 SCT080 SCT200 QNH2977INS TS OMTNS E 
     TEMPO 2419/2421 31015G25KT 
     TEMPO 2421/2423 33025G35KT VCTS BKN080CB BKN200 TX30/2322Z TN14/2412Z
       
KHND 231720Z 2318/2418 04009KT P6SM SCT250 
     FM240500 19007KT P6SM SKC 
     FM241700 03005KT P6SM SKC
       
KHOB 231852Z 2319/2418 17018KT P6SM SCT050 SCT200 
     FM241100 01015KT P6SM BKN200
       
KHON 232006Z 2320/2418 18012G18KT P6SM VCSH BKN080 
     TEMPO 2320/2322 21017G33KT -RA BKN060 
     FM240100 17008KT P6SM VCSH OVC060 
     FM240300 15005KT P6SM OVC100 
     FM241600 14010KT P6SM BKN100
       
TAF AMD KHOP 231900Z 2319/2422 04012KT 9999 BKN015 QNH3010INS 
     BECMG 2401/2403 05006KT 9999 BKN010 OVC020 QNH3010INS 
     BECMG 2407/2409 VRB06KT 8000 BR BKN005 OVC015 QNH3009INS 
     BECMG 2415/2416 VRB06KT 9999 NSW SCT005 OVC015 QNH3007INS 
     BECMG 2418/2419 09009KT 9999 SCT030 QNH2999INS TX19/2416Z TN14/2409Z
       
KHOT 231720Z 2318/2418 09007KT P6SM BKN020 
     FM232100 09010KT P6SM BKN025 
     FM240600 09005KT P6SM VCSH BKN015 
     FM241500 10005KT P6SM VCSH OVC007
       
KHOU 232102Z 2321/2418 05011KT P6SM SCT035 BKN250 
     FM240300 12007KT P6SM SCT025 BKN250 
     FM241000 14009KT P6SM -RA VCTS BKN020CB 
     TEMPO 2411/2415 VRB25KT 3SM TSRA 
     FM241700 18014KT P6SM VCSH SCT030 BKN100
       
KHPN 232246Z 2323/2418 34008KT P6SM FEW150 BKN250 
     FM240100 03005KT P6SM SCT120 BKN200 
     FM240400 04005KT P6SM BKN100 
     FM241400 10006KT P6SM BKN100 AMD NOT SKED
       
KHQM 231740Z 2318/2418 27006KT P6SM OVC015 
     FM232000 27008KT P6SM SCT015 BKN025 OVC040 
     FM240600 VRB03KT P6SM OVC011
       
KHRL 231731Z 2318/2418 10012KT P6SM BKN070 
     FM240000 12010KT P6SM BKN010 
     FM240400 14012G21KT P6SM VCSH BKN010 
     PROB30 2404/2410 4SM TSRA OVC025CB 
     FM241700 17017G29KT P6SM SCT030
       
KHRO 232121Z 2321/2418 10008KT P6SM VCSH BKN030 
     TEMPO 2321/2324 BKN005 OVC025 
     FM240600 12005KT P6SM VCSH SCT025 BKN050 
     TEMPO 2408/2412 -SHRA BKN025 
     FM241200 13009KT 6SM -SHRA BR OVC015
       
TAF KHST 231905Z 2319/2501 10012G17KT 9999 SCT027 QNH3001INS 
     BECMG 2323/2324 10008KT 9999 SCT025 QNH2999INS 
     BECMG 2413/2414 10012G18KT 9999 SCT030 QNH2998INS 
     BECMG 2423/2424 10007KT 9999 SCT030 QNH3000INS TX30/2319Z TN25/2411Z
       
KHSV 231738Z 2318/2418 34008G16KT P6SM BKN015 BKN030 OVC250 
     FM240200 05004KT P6SM SCT250 
     FM241500 13006KT P6SM FEW025 SCT050 SCT250
       
KHTS 232159Z 2322/2418 05010KT P6SM OVC030 
     TEMPO 2322/2402 6SM -SHRA BR OVC035 
     FM240200 05005KT P6SM OVC035 
     FM240900 VRB03KT 6SM BR BKN030 
     FM241200 04004KT 6SM BR BKN015 
     FM241600 06004KT P6SM BKN025
       
TAF AMD KHUA 232050Z 2320/2502 31009KT 9999 OVC015 QNH3000INS 
     BECMG 2400/2401 VRB06KT 9999 BKN019 QNH3003INS 
     BECMG 2406/2407 VRB06KT 4800 BR BKN005 QNH3003INS 
     BECMG 2413/2414 VRB06KT 6000 BR BKN012 QNH3004INS 
     BECMG 2416/2417 VRB06KT 8000 -SHRA BKN025 QNH3003INS 
     TEMPO 2417/2420 09020G25KT 9000 -TSRA BKN019CB OVC040 
     BECMG 2423/2424 13006KT 8000 -SHRA OVC019 510043 QNH2997INS 
     TEMPO 2501/2502 19020G25KT 8000 -TSRA OVC012CB TX24/2417Z TN17/2411Z LAST
NO AMDS AFT 2400 NEXT 2412
       
KHUF 231720Z 2318/2418 06013G19KT P6SM SCT250 
     FM240100 05007KT P6SM FEW250
       
KHUM 231757Z 2318/2418 12012KT P6SM VCSH SCT035 BKN100 
     TEMPO 2320/2324 4SM TSRA BR BKN025CB 
     FM240200 10005KT P6SM SCT025 BKN090 
     FM240600 VRB03KT P6SM BKN015 BKN035 
     FM241000 VRB03KT P6SM BKN005 BKN015 
     FM241400 13009KT P6SM VCSH SCT025 BKN040
       
KHUT 231728Z 2318/2418 12012G20KT P6SM SCT050 OVC100 
     FM232100 12012G20KT P6SM VCSH SCT040 OVC070 
     FM240300 08009KT 4SM SHRA VCTS SCT009 OVC015CB
       
KHVR 231720Z 2318/2418 23011KT P6SM FEW080 
     FM240000 23007KT P6SM VCSH BKN080
       
KHYA 231723Z 2318/2418 02013G20KT P6SM BKN045 BKN200 
     FM232100 04009KT P6SM BKN250 
     FM240300 04003KT P6SM BKN240 
     FM240800 02007KT P6SM BKN180
       
KHYR 231732Z 2318/2418 20005KT P6SM SCT050 BKN070 
     FM240300 VRB02KT P6SM BKN250
       
KHYS 231720Z 2318/2418 11006KT P6SM VCSH OVC070 
     FM231900 12013G21KT P6SM VCSH OVC060 
     FM240300 08008KT 6SM SHRA VCTS OVC045CB 
     FM240700 07007KT 6SM SHRA BR OVC018
       
KHUL 231720Z 2318/2418 34010G18KT P6SM FEW035 
     FM232300 35006KT P6SM FEW250 
     FM241300 02004KT P6SM FEW250